createdAt,value
2019-04-16T00:00:13.252Z,1011.95
2019-04-16T00:01:14.023Z,1011.95
2019-04-16T00:02:13.230Z,1011.94
2019-04-16T00:03:13.233Z,1011.92
2019-04-16T00:04:13.221Z,1011.90
2019-04-16T00:05:13.217Z,1011.89
2019-04-16T00:06:13.209Z,1011.92
2019-04-16T00:07:13.207Z,1011.92
2019-04-16T00:08:27.184Z,1011.91
2019-04-16T00:09:13.195Z,1011.89
2019-04-16T00:10:13.184Z,1011.87
2019-04-16T00:11:13.182Z,1011.84
2019-04-16T00:12:13.173Z,1011.86
2019-04-16T00:13:13.171Z,1011.83
2019-04-16T00:14:13.162Z,1011.86
2019-04-16T00:15:13.153Z,1011.86
2019-04-16T00:16:13.768Z,1011.83
2019-04-16T00:17:15.712Z,1011.79
2019-04-16T00:18:13.141Z,1011.82
2019-04-16T00:19:13.137Z,1011.77
2019-04-16T00:20:13.125Z,1011.77
2019-04-16T00:21:13.120Z,1011.81
2019-04-16T00:22:13.115Z,1011.75
2019-04-16T00:23:13.110Z,1011.78
2019-04-16T00:24:13.105Z,1011.73
2019-04-16T00:25:13.093Z,1011.71
2019-04-16T00:26:13.091Z,1011.68
2019-04-16T00:27:13.087Z,1011.65
2019-04-16T00:28:13.081Z,1011.72
2019-04-16T00:29:13.078Z,1011.69
2019-04-16T00:30:13.066Z,1011.68
2019-04-16T00:31:13.065Z,1011.65
2019-04-16T00:32:13.055Z,1011.68
2019-04-16T00:33:13.053Z,1011.69
2019-04-16T00:34:14.218Z,1011.66
2019-04-16T00:35:15.456Z,1011.64
2019-04-16T00:36:15.378Z,1011.66
2019-04-16T00:37:13.025Z,1011.68
2019-04-16T00:38:13.024Z,1011.66
2019-04-16T00:39:13.019Z,1011.64
2019-04-16T00:40:13.009Z,1011.64
2019-04-16T00:41:13.004Z,1011.67
2019-04-16T00:42:12.996Z,1011.65
2019-04-16T00:43:12.997Z,1011.66
2019-04-16T00:44:12.983Z,1011.62
2019-04-16T00:45:12.984Z,1011.59
2019-04-16T00:46:12.979Z,1011.60
2019-04-16T00:47:12.971Z,1011.65
2019-04-16T00:48:12.962Z,1011.62
2019-04-16T00:49:12.960Z,1011.64
2019-04-16T00:50:12.951Z,1011.62
2019-04-16T00:51:12.946Z,1011.62
2019-04-16T00:52:12.944Z,1011.63
2019-04-16T00:53:12.934Z,1011.64
2019-04-16T00:54:12.927Z,1011.66
2019-04-16T00:55:14.623Z,1011.63
2019-04-16T00:56:13.368Z,1011.65
2019-04-16T00:57:17.770Z,1011.60
2019-04-16T00:58:12.903Z,1011.61
2019-04-16T00:59:12.901Z,1011.60
2019-04-16T01:00:12.893Z,1011.62
2019-04-16T01:01:12.883Z,1011.58
2019-04-16T01:02:12.882Z,1011.58
2019-04-16T01:03:12.871Z,1011.57
2019-04-16T01:04:12.868Z,1011.58
2019-04-16T01:05:12.863Z,1011.55
2019-04-16T01:06:12.854Z,1011.56
2019-04-16T01:07:12.849Z,1011.58
2019-04-16T01:08:12.839Z,1011.57
2019-04-16T01:09:12.832Z,1011.56
2019-04-16T01:10:12.833Z,1011.54
2019-04-16T01:11:12.826Z,1011.59
2019-04-16T01:12:12.819Z,1011.58
2019-04-16T01:13:12.815Z,1011.54
2019-04-16T01:14:12.809Z,1011.56
2019-04-16T01:15:12.802Z,1011.54
2019-04-16T01:16:12.800Z,1011.50
2019-04-16T01:17:12.783Z,1011.52
2019-04-16T01:18:12.784Z,1011.45
2019-04-16T01:19:12.772Z,1011.44
2019-04-16T01:20:13.111Z,1011.44
2019-04-16T01:21:14.157Z,1011.41
2019-04-16T01:22:15.760Z,1011.41
2019-04-16T01:23:17.521Z,1011.38
2019-04-16T01:24:12.747Z,1011.39
2019-04-16T01:25:12.739Z,1011.42
2019-04-16T01:26:12.728Z,1011.37
2019-04-16T01:27:12.730Z,1011.35
2019-04-16T01:28:12.721Z,1011.38
2019-04-16T01:29:12.710Z,1011.37
2019-04-16T01:30:12.708Z,1011.32
2019-04-16T01:31:12.706Z,1011.35
2019-04-16T01:32:12.693Z,1011.35
2019-04-16T01:33:14.786Z,1011.34
2019-04-16T01:34:15.298Z,1011.37
2019-04-16T01:35:12.681Z,1011.39
2019-04-16T01:36:12.667Z,1011.34
2019-04-16T01:37:12.661Z,1011.35
2019-04-16T01:38:12.659Z,1011.35
2019-04-16T01:39:17.946Z,1011.37
2019-04-16T01:40:12.646Z,1011.33
2019-04-16T01:41:12.634Z,1011.34
2019-04-16T01:42:12.628Z,1011.33
2019-04-16T01:43:12.628Z,1011.31
2019-04-16T01:44:12.619Z,1011.31
2019-04-16T01:45:12.615Z,1011.29
2019-04-16T01:46:12.606Z,1011.28
2019-04-16T01:47:12.597Z,1011.28
2019-04-16T01:48:12.593Z,1011.27
2019-04-16T01:49:12.591Z,1011.24
2019-04-16T01:50:13.991Z,1011.25
2019-04-16T01:51:15.316Z,1011.25
2019-04-16T01:52:12.569Z,1011.25
2019-04-16T01:53:12.565Z,1011.27
2019-04-16T01:54:12.557Z,1011.25
2019-04-16T01:55:12.551Z,1011.25
2019-04-16T01:56:12.549Z,1011.24
2019-04-16T01:57:12.535Z,1011.22
2019-04-16T01:58:12.532Z,1011.20
2019-04-16T01:59:12.527Z,1011.21
2019-04-16T02:00:12.520Z,1011.17
2019-04-16T02:01:12.513Z,1011.18
2019-04-16T02:02:15.533Z,1011.20
2019-04-16T02:03:12.498Z,1011.15
2019-04-16T02:04:12.488Z,1011.15
2019-04-16T02:05:12.488Z,1011.14
2019-04-16T02:06:12.482Z,1011.15
2019-04-16T02:07:12.477Z,1011.15
2019-04-16T02:08:12.468Z,1011.15
2019-04-16T02:09:22.403Z,1011.15
2019-04-16T02:10:12.452Z,1011.14
2019-04-16T02:11:12.452Z,1011.15
2019-04-16T02:12:13.514Z,1011.16
2019-04-16T02:13:14.952Z,1011.11
2019-04-16T02:14:14.509Z,1011.10
2019-04-16T02:15:12.427Z,1011.12
2019-04-16T02:16:12.503Z,1011.12
2019-04-16T02:17:12.411Z,1011.14
2019-04-16T02:18:12.462Z,1011.15
2019-04-16T02:19:12.446Z,1011.16
2019-04-16T02:20:12.387Z,1011.15
2019-04-16T02:21:12.390Z,1011.10
2019-04-16T02:22:13.964Z,1011.13
2019-04-16T02:23:13.688Z,1011.12
2019-04-16T02:24:12.363Z,1011.10
2019-04-16T02:25:12.520Z,1011.09
2019-04-16T02:26:12.519Z,1011.10
2019-04-16T02:27:12.343Z,1011.08
2019-04-16T02:28:12.338Z,1011.06
2019-04-16T02:29:12.329Z,1011.06
2019-04-16T02:30:12.323Z,1011.06
2019-04-16T02:31:15.683Z,1011.06
2019-04-16T02:32:12.313Z,1011.06
2019-04-16T02:33:12.306Z,1011.03
2019-04-16T02:34:12.326Z,1011.02
2019-04-16T02:35:12.287Z,1011.04
2019-04-16T02:36:12.291Z,1011.05
2019-04-16T02:37:12.281Z,1011.03
2019-04-16T02:38:13.843Z,1011.04
2019-04-16T02:39:12.265Z,1011.05
2019-04-16T02:40:16.659Z,1011.02
2019-04-16T02:41:12.246Z,1011.04
2019-04-16T02:42:12.242Z,1011.04
2019-04-16T02:43:12.246Z,1011.03
2019-04-16T02:44:15.983Z,1011.02
2019-04-16T02:45:12.416Z,1011.03
2019-04-16T02:46:12.222Z,1010.99
2019-04-16T02:47:12.215Z,1011.01
2019-04-16T02:48:16.706Z,1010.97
2019-04-16T02:49:12.516Z,1010.95
2019-04-16T02:50:12.195Z,1011.00
2019-04-16T02:51:12.183Z,1010.98
2019-04-16T02:52:16.485Z,1010.96
2019-04-16T02:53:12.173Z,1010.95
2019-04-16T02:54:12.177Z,1010.96
2019-04-16T02:55:12.157Z,1010.95
2019-04-16T02:56:17.568Z,1010.95
2019-04-16T02:57:12.140Z,1010.93
2019-04-16T02:58:12.139Z,1010.94
2019-04-16T02:59:13.591Z,1010.88
2019-04-16T03:00:12.125Z,1010.90
2019-04-16T03:01:12.121Z,1010.93
2019-04-16T03:02:12.108Z,1010.90
2019-04-16T03:03:12.103Z,1010.84
2019-04-16T03:04:12.098Z,1010.88
2019-04-16T03:05:12.090Z,1010.86
2019-04-16T03:06:12.084Z,1010.91
2019-04-16T03:07:12.078Z,1010.88
2019-04-16T03:08:12.144Z,1010.84
2019-04-16T03:09:12.103Z,1010.81
2019-04-16T03:10:13.799Z,1010.82
2019-04-16T03:11:13.745Z,1010.78
2019-04-16T03:12:12.095Z,1010.77
2019-04-16T03:13:12.034Z,1010.74
2019-04-16T03:14:12.034Z,1010.75
2019-04-16T03:15:12.020Z,1010.74
2019-04-16T03:16:12.018Z,1010.71
2019-04-16T03:17:12.019Z,1010.69
2019-04-16T03:18:15.039Z,1010.72
2019-04-16T03:19:11.998Z,1010.68
2019-04-16T03:20:12.069Z,1010.67
2019-04-16T03:21:11.979Z,1010.69
2019-04-16T03:22:11.981Z,1010.67
2019-04-16T03:23:11.970Z,1010.64
2019-04-16T03:24:11.966Z,1010.67
2019-04-16T03:25:13.948Z,1010.66
2019-04-16T03:26:16.383Z,1010.65
2019-04-16T03:27:12.048Z,1010.61
2019-04-16T03:28:11.933Z,1010.63
2019-04-16T03:29:11.925Z,1010.61
2019-04-16T03:30:11.926Z,1010.66
2019-04-16T03:31:19.362Z,1010.59
2019-04-16T03:32:14.179Z,1010.61
2019-04-16T03:33:14.663Z,1010.59
2019-04-16T03:34:11.900Z,1010.60
2019-04-16T03:35:11.891Z,1010.57
2019-04-16T03:36:11.878Z,1010.52
2019-04-16T03:37:11.874Z,1010.54
2019-04-16T03:38:11.868Z,1010.53
2019-04-16T03:39:13.715Z,1010.49
2019-04-16T03:40:17.737Z,1010.45
2019-04-16T03:41:11.846Z,1010.43
2019-04-16T03:42:11.989Z,1010.42
2019-04-16T03:43:11.903Z,1010.46
2019-04-16T03:44:11.992Z,1010.42
2019-04-16T03:45:12.044Z,1010.43
2019-04-16T03:46:13.015Z,1010.42
2019-04-16T03:47:11.810Z,1010.40
2019-04-16T03:48:11.805Z,1010.40
2019-04-16T03:49:11.794Z,1010.41
2019-04-16T03:50:11.782Z,1010.39
2019-04-16T03:51:11.780Z,1010.37
2019-04-16T03:52:11.778Z,1010.37
2019-04-16T03:53:16.353Z,1010.42
2019-04-16T03:54:11.770Z,1010.42
2019-04-16T03:55:11.755Z,1010.38
2019-04-16T03:56:11.746Z,1010.36
2019-04-16T03:57:11.739Z,1010.36
2019-04-16T03:58:11.733Z,1010.36
2019-04-16T03:59:12.438Z,1010.34
2019-04-16T04:00:12.904Z,1010.33
2019-04-16T04:01:14.436Z,1010.33
2019-04-16T04:02:11.703Z,1010.33
2019-04-16T04:03:11.697Z,1010.31
2019-04-16T04:04:11.690Z,1010.32
2019-04-16T04:05:11.685Z,1010.30
2019-04-16T04:06:11.674Z,1010.29
2019-04-16T04:07:13.212Z,1010.29
2019-04-16T04:08:16.087Z,1010.31
2019-04-16T04:09:11.657Z,1010.29
2019-04-16T04:10:11.646Z,1010.29
2019-04-16T04:11:11.643Z,1010.32
2019-04-16T04:12:13.008Z,1010.29
2019-04-16T04:13:14.626Z,1010.27
2019-04-16T04:14:11.619Z,1010.29
2019-04-16T04:15:11.614Z,1010.32
2019-04-16T04:16:11.605Z,1010.32
2019-04-16T04:17:11.597Z,1010.35
2019-04-16T04:18:12.788Z,1010.31
2019-04-16T04:19:15.152Z,1010.35
2019-04-16T04:20:11.577Z,1010.33
2019-04-16T04:21:11.568Z,1010.37
2019-04-16T04:22:11.559Z,1010.31
2019-04-16T04:23:11.562Z,1010.36
2019-04-16T04:24:11.551Z,1010.33
2019-04-16T04:25:11.547Z,1010.33
2019-04-16T04:26:11.546Z,1010.34
2019-04-16T04:27:14.774Z,1010.34
2019-04-16T04:28:11.519Z,1010.34
2019-04-16T04:29:11.653Z,1010.32
2019-04-16T04:30:11.507Z,1010.35
2019-04-16T04:31:11.504Z,1010.39
2019-04-16T04:32:11.494Z,1010.37
2019-04-16T04:33:11.489Z,1010.36
2019-04-16T04:34:15.384Z,1010.36
2019-04-16T04:35:11.472Z,1010.40
2019-04-16T04:36:11.469Z,1010.37
2019-04-16T04:37:11.454Z,1010.39
2019-04-16T04:38:11.535Z,1010.37
2019-04-16T04:39:14.962Z,1010.36
2019-04-16T04:40:12.770Z,1010.35
2019-04-16T04:41:11.434Z,1010.33
2019-04-16T04:42:11.424Z,1010.36
2019-04-16T04:43:11.428Z,1010.38
2019-04-16T04:44:11.406Z,1010.33
2019-04-16T04:45:11.405Z,1010.32
2019-04-16T04:46:14.793Z,1010.36
2019-04-16T04:47:11.391Z,1010.38
2019-04-16T04:48:12.129Z,1010.38
2019-04-16T04:49:11.371Z,1010.38
2019-04-16T04:50:11.363Z,1010.38
2019-04-16T04:51:11.360Z,1010.35
2019-04-16T04:52:14.639Z,1010.30
2019-04-16T04:53:11.349Z,1010.34
2019-04-16T04:54:11.351Z,1010.37
2019-04-16T04:55:11.469Z,1010.33
2019-04-16T04:56:11.324Z,1010.33
2019-04-16T04:57:11.316Z,1010.31
2019-04-16T04:58:11.407Z,1010.31
2019-04-16T04:59:11.302Z,1010.32
2019-04-16T05:00:11.295Z,1010.29
2019-04-16T05:01:13.587Z,1010.29
2019-04-16T05:02:14.540Z,1010.30
2019-04-16T05:03:12.409Z,1010.32
2019-04-16T05:04:11.269Z,1010.32
2019-04-16T05:05:11.258Z,1010.34
2019-04-16T05:06:11.253Z,1010.29
2019-04-16T05:07:11.244Z,1010.34
2019-04-16T05:08:11.291Z,1010.35
2019-04-16T05:09:11.236Z,1010.33
2019-04-16T05:10:11.223Z,1010.41
2019-04-16T05:11:12.524Z,1010.37
2019-04-16T05:12:11.331Z,1010.39
2019-04-16T05:13:11.273Z,1010.39
2019-04-16T05:14:11.195Z,1010.38
2019-04-16T05:15:11.223Z,1010.38
2019-04-16T05:16:11.464Z,1010.37
2019-04-16T05:17:11.177Z,1010.37
2019-04-16T05:18:11.172Z,1010.36
2019-04-16T05:19:14.033Z,1010.33
2019-04-16T05:20:14.835Z,1010.35
2019-04-16T05:21:11.151Z,1010.34
2019-04-16T05:22:11.148Z,1010.40
2019-04-16T05:23:11.138Z,1010.38
2019-04-16T05:24:11.173Z,1010.40
2019-04-16T05:25:11.125Z,1010.39
2019-04-16T05:26:11.111Z,1010.38
2019-04-16T05:27:11.112Z,1010.39
2019-04-16T05:28:12.056Z,1010.43
2019-04-16T05:29:16.125Z,1010.42
2019-04-16T05:30:11.091Z,1010.42
2019-04-16T05:31:11.085Z,1010.44
2019-04-16T05:32:11.314Z,1010.50
2019-04-16T05:33:11.071Z,1010.46
2019-04-16T05:34:11.063Z,1010.47
2019-04-16T05:35:11.255Z,1010.46
2019-04-16T05:36:14.172Z,1010.50
2019-04-16T05:37:11.043Z,1010.52
2019-04-16T05:38:11.041Z,1010.54
2019-04-16T05:39:11.028Z,1010.54
2019-04-16T05:40:11.022Z,1010.56
2019-04-16T05:41:13.657Z,1010.52
2019-04-16T05:42:11.207Z,1010.59
2019-04-16T05:43:11.000Z,1010.58
2019-04-16T05:44:11.014Z,1010.57
2019-04-16T05:45:11.431Z,1010.59
2019-04-16T05:46:11.497Z,1010.55
2019-04-16T05:47:11.144Z,1010.60
2019-04-16T05:48:11.349Z,1010.59
2019-04-16T05:49:10.963Z,1010.59
2019-04-16T05:50:10.958Z,1010.61
2019-04-16T05:51:10.949Z,1010.61
2019-04-16T05:52:10.938Z,1010.62
2019-04-16T05:53:13.163Z,1010.65
2019-04-16T05:54:12.177Z,1010.65
2019-04-16T05:55:16.885Z,1010.65
2019-04-16T05:56:10.914Z,1010.68
2019-04-16T05:57:10.907Z,1010.71
2019-04-16T05:58:10.906Z,1010.66
2019-04-16T05:59:10.895Z,1010.65
2019-04-16T06:00:10.894Z,1010.60
2019-04-16T06:01:13.695Z,1010.61
2019-04-16T06:02:10.881Z,1010.60
2019-04-16T06:03:10.872Z,1010.57
2019-04-16T06:04:10.871Z,1010.61
2019-04-16T06:05:10.858Z,1010.59
2019-04-16T06:06:10.851Z,1010.58
2019-04-16T06:07:10.849Z,1010.57
2019-04-16T06:08:10.850Z,1010.54
2019-04-16T06:09:12.166Z,1010.56
2019-04-16T06:10:17.083Z,1010.58
2019-04-16T06:11:10.827Z,1010.59
2019-04-16T06:12:10.821Z,1010.59
2019-04-16T06:13:12.606Z,1010.58
2019-04-16T06:14:16.970Z,1010.58
2019-04-16T06:15:10.796Z,1010.59
2019-04-16T06:16:10.789Z,1010.56
2019-04-16T06:17:10.786Z,1010.57
2019-04-16T06:18:10.786Z,1010.54
2019-04-16T06:19:11.468Z,1010.56
2019-04-16T06:20:10.770Z,1010.52
2019-04-16T06:21:10.768Z,1010.56
2019-04-16T06:22:10.755Z,1010.52
2019-04-16T06:23:10.750Z,1010.55
2019-04-16T06:24:10.750Z,1010.55
2019-04-16T06:25:11.088Z,1010.53
2019-04-16T06:26:14.762Z,1010.54
2019-04-16T06:27:10.729Z,1010.55
2019-04-16T06:28:10.722Z,1010.51
2019-04-16T06:29:10.717Z,1010.57
2019-04-16T06:30:10.716Z,1010.50
2019-04-16T06:31:10.710Z,1010.56
2019-04-16T06:32:11.899Z,1010.54
2019-04-16T06:33:10.700Z,1010.57
2019-04-16T06:34:10.687Z,1010.56
2019-04-16T06:35:10.689Z,1010.56
2019-04-16T06:36:10.682Z,1010.56
2019-04-16T06:37:10.673Z,1010.56
2019-04-16T06:38:10.672Z,1010.57
2019-04-16T06:39:10.660Z,1010.54
2019-04-16T06:40:10.651Z,1010.48
2019-04-16T06:41:10.653Z,1010.51
2019-04-16T06:42:10.643Z,1010.53
2019-04-16T06:43:10.642Z,1010.58
2019-04-16T06:44:10.641Z,1010.55
2019-04-16T06:45:10.629Z,1010.55
2019-04-16T06:46:10.623Z,1010.59
2019-04-16T06:47:11.772Z,1010.61
2019-04-16T06:48:13.223Z,1010.61
2019-04-16T06:49:10.607Z,1010.60
2019-04-16T06:50:10.609Z,1010.58
2019-04-16T06:51:12.428Z,1010.59
2019-04-16T06:52:16.030Z,1010.57
2019-04-16T06:53:10.588Z,1010.64
2019-04-16T06:54:11.246Z,1010.64
2019-04-16T06:55:10.579Z,1010.65
2019-04-16T06:56:10.574Z,1010.64
2019-04-16T06:57:12.190Z,1010.62
2019-04-16T06:58:12.485Z,1010.59
2019-04-16T06:59:10.565Z,1010.65
2019-04-16T07:00:10.557Z,1010.63
2019-04-16T07:01:10.561Z,1010.54
2019-04-16T07:02:11.222Z,1010.57
2019-04-16T07:03:10.539Z,1010.59
2019-04-16T07:04:10.534Z,1010.57
2019-04-16T07:05:10.533Z,1010.57
2019-04-16T07:06:10.530Z,1010.56
2019-04-16T07:07:10.521Z,1010.54
2019-04-16T07:08:10.517Z,1010.56
2019-04-16T07:09:10.510Z,1010.59
2019-04-16T07:10:10.508Z,1010.60
2019-04-16T07:11:10.519Z,1010.56
2019-04-16T07:12:10.498Z,1010.56
2019-04-16T07:13:11.367Z,1010.55
2019-04-16T07:14:11.580Z,1010.56
2019-04-16T07:15:10.495Z,1010.55
2019-04-16T07:16:10.481Z,1010.58
2019-04-16T07:17:10.482Z,1010.53
2019-04-16T07:18:10.499Z,1010.55
2019-04-16T07:19:11.587Z,1010.51
2019-04-16T07:20:13.377Z,1010.49
2019-04-16T07:21:10.461Z,1010.47
2019-04-16T07:22:10.455Z,1010.49
2019-04-16T07:23:10.456Z,1010.52
2019-04-16T07:24:10.457Z,1010.50
2019-04-16T07:25:10.470Z,1010.51
2019-04-16T07:26:13.534Z,1010.55
2019-04-16T07:27:10.438Z,1010.56
2019-04-16T07:28:10.435Z,1010.62
2019-04-16T07:29:10.425Z,1010.64
2019-04-16T07:30:10.427Z,1010.65
2019-04-16T07:31:13.495Z,1010.64
2019-04-16T07:32:10.430Z,1010.61
2019-04-16T07:33:10.413Z,1010.66
2019-04-16T07:34:10.409Z,1010.59
2019-04-16T07:35:10.432Z,1010.57
2019-04-16T07:36:10.403Z,1010.59
2019-04-16T07:37:10.410Z,1010.51
2019-04-16T07:38:11.631Z,1010.55
2019-04-16T07:39:13.233Z,1010.53
2019-04-16T07:40:10.666Z,1010.49
2019-04-16T07:41:11.842Z,1010.50
2019-04-16T07:42:14.053Z,1010.53
2019-04-16T07:43:10.504Z,1010.51
2019-04-16T07:44:11.251Z,1010.54
2019-04-16T07:45:12.543Z,1010.52
2019-04-16T07:46:10.364Z,1010.49
2019-04-16T07:47:10.561Z,1010.49
2019-04-16T07:48:10.352Z,1010.51
2019-04-16T07:49:10.356Z,1010.50
2019-04-16T07:50:10.352Z,1010.52
2019-04-16T07:51:10.347Z,1010.53
2019-04-16T07:52:12.277Z,1010.52
2019-04-16T07:53:13.333Z,1010.48
2019-04-16T07:54:10.332Z,1010.53
2019-04-16T07:55:10.561Z,1010.52
2019-04-16T07:56:10.326Z,1010.50
2019-04-16T07:57:10.333Z,1010.52
2019-04-16T07:58:10.325Z,1010.52
2019-04-16T07:59:10.320Z,1010.55
2019-04-16T08:00:10.314Z,1010.51
2019-04-16T08:01:12.654Z,1010.50
2019-04-16T08:02:10.312Z,1010.48
2019-04-16T08:03:10.308Z,1010.48
2019-04-16T08:04:10.304Z,1010.49
2019-04-16T08:05:10.295Z,1010.45
2019-04-16T08:06:10.704Z,1010.52
2019-04-16T08:07:10.292Z,1010.50
2019-04-16T08:08:10.345Z,1010.49
2019-04-16T08:09:10.290Z,1010.50
2019-04-16T08:10:10.290Z,1010.52
2019-04-16T08:11:10.281Z,1010.48
2019-04-16T08:12:22.288Z,1010.51
2019-04-16T08:13:10.374Z,1010.50
2019-04-16T08:14:10.451Z,1010.51
2019-04-16T08:15:14.526Z,1010.46
2019-04-16T08:16:10.280Z,1010.51
2019-04-16T08:17:10.268Z,1010.45
2019-04-16T08:18:10.269Z,1010.44
2019-04-16T08:19:12.227Z,1010.46
2019-04-16T08:20:10.607Z,1010.44
2019-04-16T08:21:12.379Z,1010.42
2019-04-16T08:22:15.579Z,1010.44
2019-04-16T08:23:10.260Z,1010.42
2019-04-16T08:24:10.252Z,1010.42
2019-04-16T08:25:10.262Z,1010.35
2019-04-16T08:26:13.308Z,1010.41
2019-04-16T08:27:10.901Z,1010.41
2019-04-16T08:28:10.267Z,1010.43
2019-04-16T08:29:10.442Z,1010.42
2019-04-16T08:30:10.251Z,1010.43
2019-04-16T08:31:12.232Z,1010.37
2019-04-16T08:32:12.824Z,1010.41
2019-04-16T08:33:11.704Z,1010.42
2019-04-16T08:34:10.247Z,1010.38
2019-04-16T08:35:10.276Z,1010.43
2019-04-16T08:36:10.268Z,1010.40
2019-04-16T08:37:10.243Z,1010.38
2019-04-16T08:38:10.243Z,1010.35
2019-04-16T08:39:10.279Z,1010.34
2019-04-16T08:40:12.449Z,1010.26
2019-04-16T08:41:12.697Z,1010.28
2019-04-16T08:42:10.241Z,1010.26
2019-04-16T08:43:10.256Z,1010.25
2019-04-16T08:44:10.754Z,1010.24
2019-04-16T08:45:10.236Z,1010.20
2019-04-16T08:46:11.516Z,1010.23
2019-04-16T08:47:12.002Z,1010.20
2019-04-16T08:48:10.324Z,1010.21
2019-04-16T08:49:10.232Z,1010.22
2019-04-16T08:50:12.183Z,1010.17
2019-04-16T08:51:10.232Z,1010.26
2019-04-16T08:52:11.023Z,1010.23
2019-04-16T08:53:13.562Z,1010.20
2019-04-16T08:54:10.286Z,1010.18
2019-04-16T08:55:10.231Z,1010.21
2019-04-16T08:56:10.226Z,1010.14
2019-04-16T08:57:10.492Z,1010.15
2019-04-16T08:58:12.451Z,1010.13
2019-04-16T08:59:11.298Z,1010.11
2019-04-16T09:00:14.399Z,1010.13
2019-04-16T09:01:10.221Z,1010.11
2019-04-16T09:02:10.213Z,1010.11
2019-04-16T09:03:10.217Z,1010.07
2019-04-16T09:04:10.222Z,1010.10
2019-04-16T09:05:11.728Z,1010.14
2019-04-16T09:06:13.184Z,1010.09
2019-04-16T09:07:13.018Z,1010.10
2019-04-16T09:08:13.028Z,1010.08
2019-04-16T09:09:13.482Z,1010.08
2019-04-16T09:10:18.864Z,1010.10
2019-04-16T09:11:22.315Z,1010.11
2019-04-16T09:12:10.266Z,1010.16
2019-04-16T09:13:10.202Z,1010.12
2019-04-16T09:14:10.212Z,1010.07
2019-04-16T09:15:10.205Z,1010.05
2019-04-16T09:16:10.925Z,1010.06
2019-04-16T09:17:10.459Z,1010.12
2019-04-16T09:18:10.201Z,1010.08
2019-04-16T09:19:10.197Z,1010.10
2019-04-16T09:20:10.199Z,1010.06
2019-04-16T09:21:11.595Z,1010.06
2019-04-16T09:22:15.761Z,1010.09
2019-04-16T09:23:10.199Z,1010.07
2019-04-16T09:24:10.202Z,1010.11
2019-04-16T09:25:13.832Z,1010.08
2019-04-16T09:26:14.015Z,1010.12
2019-04-16T09:27:12.590Z,1010.13
2019-04-16T09:28:24.566Z,1010.11
2019-04-16T09:29:10.482Z,1010.08
2019-04-16T09:30:16.328Z,1010.10
2019-04-16T09:31:10.381Z,1010.12
2019-04-16T09:32:10.195Z,1010.11
2019-04-16T09:33:10.483Z,1010.12
2019-04-16T09:34:10.193Z,1010.11
2019-04-16T09:35:14.231Z,1010.11
2019-04-16T09:36:10.191Z,1010.14
2019-04-16T09:37:10.196Z,1010.14
2019-04-16T09:38:13.038Z,1010.16
2019-04-16T09:39:10.194Z,1010.12
2019-04-16T09:40:17.623Z,1010.14
2019-04-16T09:41:10.185Z,1010.17
2019-04-16T09:42:10.186Z,1010.14
2019-04-16T09:43:16.754Z,1010.13
2019-04-16T09:44:10.192Z,1010.13
2019-04-16T09:45:10.203Z,1010.13
2019-04-16T09:46:17.560Z,1010.16
2019-04-16T09:47:10.185Z,1010.14
2019-04-16T09:48:10.189Z,1010.19
2019-04-16T09:49:10.183Z,1010.12
2019-04-16T09:50:11.532Z,1010.16
2019-04-16T09:51:10.183Z,1010.14
2019-04-16T09:52:10.186Z,1010.13
2019-04-16T09:53:10.183Z,1010.17
2019-04-16T09:54:13.569Z,1010.19
2019-04-16T09:55:10.179Z,1010.20
2019-04-16T09:56:10.181Z,1010.17
2019-04-16T09:57:10.178Z,1010.17
2019-04-16T09:58:10.182Z,1010.16
2019-04-16T09:59:10.983Z,1010.16
2019-04-16T10:00:10.221Z,1010.13
2019-04-16T10:01:10.183Z,1010.15
2019-04-16T10:02:10.184Z,1010.10
2019-04-16T10:03:10.179Z,1010.13
2019-04-16T10:04:10.183Z,1010.11
2019-04-16T10:05:10.185Z,1010.09
2019-04-16T10:06:10.181Z,1010.06
2019-04-16T10:07:10.220Z,1010.04
2019-04-16T10:08:12.767Z,1010.02
2019-04-16T10:09:10.204Z,1010.04
2019-04-16T10:10:10.201Z,1010.00
2019-04-16T10:11:10.186Z,1010.00
2019-04-16T10:12:10.210Z,1010.00
2019-04-16T10:13:10.213Z,1010.03
2019-04-16T10:14:10.185Z,1009.97
2019-04-16T10:15:10.228Z,1009.96
2019-04-16T10:16:13.381Z,1009.97
2019-04-16T10:17:10.199Z,1009.92
2019-04-16T10:18:10.219Z,1009.89
2019-04-16T10:19:10.199Z,1009.87
2019-04-16T10:20:10.228Z,1009.90
2019-04-16T10:21:10.198Z,1009.93
2019-04-16T10:22:10.197Z,1009.93
2019-04-16T10:23:10.196Z,1009.87
2019-04-16T10:24:13.061Z,1009.90
2019-04-16T10:25:10.237Z,1009.87
2019-04-16T10:26:10.206Z,1009.88
2019-04-16T10:27:10.226Z,1009.82
2019-04-16T10:28:10.220Z,1009.90
2019-04-16T10:29:10.221Z,1009.93
2019-04-16T10:30:10.226Z,1009.84
2019-04-16T10:31:10.250Z,1009.88
2019-04-16T10:32:10.265Z,1009.92
2019-04-16T10:33:10.244Z,1009.88
2019-04-16T10:34:10.247Z,1009.88
2019-04-16T10:35:10.257Z,1009.84
2019-04-16T10:36:10.258Z,1009.80
2019-04-16T10:37:10.263Z,1009.88
2019-04-16T10:38:13.382Z,1009.79
2019-04-16T10:39:10.282Z,1009.83
2019-04-16T10:40:10.304Z,1009.77
2019-04-16T10:41:10.300Z,1009.78
2019-04-16T10:42:10.301Z,1009.76
2019-04-16T10:43:10.312Z,1009.80
2019-04-16T10:44:10.342Z,1009.81
2019-04-16T10:45:10.318Z,1009.81
2019-04-16T10:46:10.332Z,1009.80
2019-04-16T10:47:12.424Z,1009.88
2019-04-16T10:48:10.338Z,1009.85
2019-04-16T10:49:10.369Z,1009.83
2019-04-16T10:50:10.385Z,1009.86
2019-04-16T10:51:15.182Z,1009.86
2019-04-16T10:52:10.398Z,1009.84
2019-04-16T10:53:10.458Z,1009.88
2019-04-16T10:54:10.391Z,1009.83
2019-04-16T10:55:12.156Z,1009.88
2019-04-16T10:56:10.410Z,1009.96
2019-04-16T10:57:10.553Z,1009.90
2019-04-16T10:58:10.431Z,1009.93
2019-04-16T10:59:10.435Z,1009.90
2019-04-16T11:00:10.455Z,1009.90
2019-04-16T11:01:10.575Z,1009.88
2019-04-16T11:02:10.877Z,1009.92
2019-04-16T11:03:10.498Z,1009.88
2019-04-16T11:04:10.491Z,1009.90
2019-04-16T11:05:10.511Z,1009.89
2019-04-16T11:06:10.504Z,1009.89
2019-04-16T11:07:10.516Z,1009.88
2019-04-16T11:08:10.540Z,1009.89
2019-04-16T11:09:10.559Z,1009.91
2019-04-16T11:10:11.908Z,1009.90
2019-04-16T11:11:10.546Z,1009.88
2019-04-16T11:12:10.555Z,1009.91
2019-04-16T11:13:10.599Z,1009.90
2019-04-16T11:14:10.590Z,1009.96
2019-04-16T11:15:10.591Z,1009.89
2019-04-16T11:16:10.625Z,1009.86
2019-04-16T11:17:10.629Z,1009.87
2019-04-16T11:18:10.626Z,1009.86
2019-04-16T11:19:10.627Z,1009.86
2019-04-16T11:20:10.638Z,1009.88
2019-04-16T11:21:10.674Z,1009.88
2019-04-16T11:22:10.758Z,1009.90
2019-04-16T11:23:10.679Z,1009.92
2019-04-16T11:24:10.705Z,1009.92
2019-04-16T11:25:10.714Z,1009.95
2019-04-16T11:26:10.704Z,1009.93
2019-04-16T11:27:10.715Z,1009.90
2019-04-16T11:28:13.768Z,1009.92
2019-04-16T11:29:10.758Z,1009.92
2019-04-16T11:30:10.776Z,1009.91
2019-04-16T11:31:10.798Z,1009.93
2019-04-16T11:32:10.777Z,1009.91
2019-04-16T11:33:10.808Z,1009.91
2019-04-16T11:34:10.789Z,1009.88
2019-04-16T11:35:13.044Z,1009.91
2019-04-16T11:36:20.005Z,1009.93
2019-04-16T11:37:10.832Z,1009.91
2019-04-16T11:38:11.134Z,1009.87
2019-04-16T11:39:10.857Z,1009.87
2019-04-16T11:40:10.864Z,1009.84
2019-04-16T11:41:10.907Z,1009.83
2019-04-16T11:42:10.909Z,1009.81
2019-04-16T11:43:10.925Z,1009.81
2019-04-16T11:44:15.680Z,1009.80
2019-04-16T11:45:10.934Z,1009.79
2019-04-16T11:46:10.972Z,1009.87
2019-04-16T11:47:10.946Z,1009.87
2019-04-16T11:48:11.227Z,1009.83
2019-04-16T11:49:10.992Z,1009.81
2019-04-16T11:50:10.999Z,1009.80
2019-04-16T11:51:11.008Z,1009.83
2019-04-16T11:52:11.125Z,1009.80
2019-04-16T11:53:11.018Z,1009.76
2019-04-16T11:54:11.902Z,1009.77
2019-04-16T11:55:11.061Z,1009.72
2019-04-16T11:56:11.218Z,1009.84
2019-04-16T11:57:13.121Z,1009.85
2019-04-16T11:58:11.075Z,1009.79
2019-04-16T11:59:11.089Z,1009.77
2019-04-16T12:00:11.153Z,1009.76
2019-04-16T12:01:11.115Z,1009.76
2019-04-16T12:02:11.135Z,1009.72
2019-04-16T12:03:11.149Z,1009.76
2019-04-16T12:04:15.318Z,1009.78
2019-04-16T12:05:11.194Z,1009.81